Data for 05/11/2014

Time Sea-Level Adjusted Pressure Absolute Pressure Temperature Relative Humidity Dew Point   
(mb) (inHg) (mb) (inHg) (C) (F) (%) (C) (F)
00:05 1019 30.09 848 25.04 1.5 34.7 81 -1.4 29.5
00:10 1019 30.09 848 25.04 1.5 34.7 81 -1.4 29.5
00:15 1018 30.06 848 25.04 1.4 34.5 81 -1.5 29.3
00:20 1018 30.06 848 25.04 1.3 34.4 82 -1.4 29.4
00:25 1018 30.06 848 25.04 1.3 34.3 81 -1.6 29.1
00:30 1018 30.06 848 25.04 1.3 34.3 81 -1.6 29.2
00:35 1019 30.09 848 25.04 1.3 34.4 81 -1.6 29.2
00:40 1019 30.09 848 25.04 1.3 34.4 81 -1.6 29.2
00:45 1019 30.09 848 25.04 1.3 34.4 81 -1.7 29
00:50 1019 30.09 848 25.04 1.3 34.4 80 -1.7 28.9
00:55 1019 30.09 848 25.04 1.3 34.3 80 -1.8 28.7
01:00 1019 30.09 848 25.04 1.2 34.2 80 -1.9 28.6
01:05 1019 30.09 848 25.04 1.3 34.3 79 -2 28.4
01:10 1019 30.09 848 25.04 1.3 34.3 79 -2 28.3
01:15 1019 30.09 849 25.07 1.3 34.3 78 -2.1 28.3
01:20 1020 30.12 849 25.07 1.2 34.2 80 -1.8 28.7
01:25 1020 30.12 849 25.07 1.2 34.1 81 -1.7 29
01:30 1020 30.12 849 25.07 1.1 34 81 -1.8 28.8
01:35 1020 30.12 849 25.07 1.1 34 79 -2.1 28.3
01:40 1020 30.12 849 25.07 1.2 34.1 80 -2 28.4
01:45 1020 30.12 849 25.07 1.1 33.9 81 -1.9 28.6
01:50 1020 30.12 849 25.07 0.9 33.6 83 -1.7 29
01:55 1020 30.12 849 25.07 0.7 33.2 86 -1.4 29.5
02:00 1020 30.12 849 25.07 0.5 32.9 87 -1.4 29.4
02:05 1020 30.12 849 25.07 0.5 32.8 87 -1.5 29.3
02:10 1020 30.12 849 25.07 0.5 32.8 87 -1.4 29.5
02:15 1020 30.12 849 25.07 0.4 32.8 87 -1.5 29.3
02:20 1020 30.12 849 25.07 0.5 32.9 87 -1.4 29.4
02:25 1020 30.12 849 25.07 0.5 33 86 -1.6 29.1
02:30 1020 30.12 849 25.07 0.6 33.1 85 -1.6 29.1
02:35 1020 30.12 849 25.07 0.7 33.2 85 -1.6 29.1
02:40 1020 30.12 849 25.07 0.7 33.3 83 -1.9 28.6
02:45 1020 30.12 849 25.07 0.8 33.5 81 -2.1 28.2
02:50 1020 30.12 849 25.07 0.8 33.5 81 -2 28.3
02:55 1020 30.12 849 25.07 0.7 33.3 81 -2.2 28.1
03:00 1020 30.12 850 25.1 0.6 33.2 82 -2.1 28.2
03:05 1020 30.12 850 25.1 0.6 33.1 82 -2.1 28.3
03:10 1020 30.12 850 25.1 0.5 32.9 83 -2.1 28.2
03:15 1020 30.12 850 25.1 0.5 32.8 83 -2.1 28.2
03:20 1020 30.12 850 25.1 0.4 32.8 82 -2.3 27.9
03:25 1020 30.12 850 25.1 0.4 32.8 81 -2.4 27.7
03:30 1020 30.12 850 25.1 0.5 32.9 81 -2.5 27.6
03:35 1020 30.12 850 25.1 0.6 33.1 78 -2.8 27
03:40 1020 30.12 850 25.1 0.7 33.2 79 -2.6 27.3
03:45 1020 30.12 850 25.1 0.7 33.2 78 -2.7 27.1
03:50 1020 30.12 850 25.1 0.7 33.2 78 -2.8 27
03:55 1021 30.15 850 25.1 0.7 33.3 78 -2.7 27.1
04:00 1021 30.15 850 25.1 0.7 33.3 77 -2.8 27
04:05 1021 30.15 850 25.1 0.7 33.3 78 -2.7 27.2
04:10 1021 30.15 850 25.1 0.7 33.2 78 -2.7 27.2
04:15 1021 30.15 850 25.1 0.7 33.2 78 -2.8 26.9
04:20 1021 30.15 850 25.1 0.6 33.2 78 -2.7 27.1
04:25 1021 30.15 850 25.1 0.6 33.1 79 -2.6 27.3
04:30 1021 30.15 850 25.1 0.6 33 79 -2.8 27
04:35 1021 30.15 850 25.1 0.6 33.1 78 -2.8 27
04:40 1021 30.15 850 25.1 0.6 33.1 79 -2.7 27.2
04:45 1021 30.15 850 25.1 0.5 32.9 79 -2.7 27.1
04:50 1021 30.15 850 25.1 0.4 32.7 80 -2.6 27.4
04:55 1021 30.15 850 25.1 0.3 32.6 81 -2.6 27.4
05:00 1021 30.15 850 25.1 0.3 32.5 79 -3 26.6
05:05 1021 30.15 850 25.1 0.4 32.8 78 -3 26.7
05:10 1021 30.15 850 25.1 0.4 32.8 78 -2.9 26.8
05:15 1021 30.15 850 25.1 0.4 32.7 78 -3 26.7
05:20 1021 30.15 850 25.1 0.4 32.7 78 -3 26.6
05:25 1021 30.15 850 25.1 0.4 32.7 77 -3.2 26.2
05:30 1021 30.15 850 25.1 0.4 32.8 78 -3 26.5
05:35 1021 30.15 851 25.13 0.4 32.8 77 -3.2 26.3
05:40 1021 30.15 851 25.13 0.5 32.9 77 -3.1 26.4
05:45 1021 30.15 851 25.13 0.5 32.9 77 -3.1 26.3
05:50 1021 30.15 851 25.13 0.5 32.8 77 -3.1 26.4
05:55 1022 30.18 851 25.13 0.5 32.8 77 -3.2 26.3
06:00 1022 30.18 851 25.13 0.5 32.8 78 -3 26.6
06:05 1022 30.18 851 25.13 0.5 32.8 77 -3.2 26.3
06:10 1022 30.18 851 25.13 0.5 32.9 77 -3.1 26.4
06:15 1022 30.18 851 25.13 0.6 33.1 76 -3.1 26.4
06:20 1022 30.18 851 25.13 0.7 33.3 76 -3.1 26.4
06:25 1022 30.18 851 25.13 0.7 33.3 77 -2.9 26.8
06:30 1022 30.18 851 25.13 0.7 33.2 76 -3 26.5
06:35 1022 30.18 851 25.13 0.7 33.2 75 -3.2 26.2
06:40 1022 30.18 851 25.13 0.7 33.3 76 -3.1 26.4
06:45 1022 30.18 852 25.16 0.7 33.3 75 -3.2 26.3
06:50 1022 30.18 852 25.16 0.7 33.2 77 -2.9 26.7
06:55 1022 30.18 852 25.16 0.7 33.3 77 -2.9 26.8
07:00 1022 30.18 852 25.16 0.7 33.3 78 -2.7 27.2
07:05 1022 30.18 852 25.16 0.8 33.4 77 -2.8 26.9
07:10 1022 30.18 852 25.16 0.9 33.6 77 -2.7 27.1
07:15 1022 30.18 852 25.16 1 33.8 74 -3.1 26.5
07:20 1023 30.21 852 25.16 1 33.9 75 -2.8 26.9
07:25 1023 30.21 852 25.16 1.1 34 76 -2.7 27.2
07:30 1023 30.21 852 25.16 1.3 34.3 74 -2.8 26.9
07:35 1023 30.21 852 25.16 1.3 34.4 73 -2.9 26.7
07:40 1023 30.21 852 25.16 1.4 34.4 74 -2.7 27.1
07:45 1023 30.21 852 25.16 1.4 34.6 73 -2.8 26.9
07:50 1023 30.21 852 25.16 1.5 34.7 73 -2.8 27
07:55 1023 30.21 852 25.16 1.5 34.7 73 -2.9 26.8
08:00 1023 30.21 852 25.16 1.6 34.8 74 -2.5 27.4
08:05 1023 30.21 852 25.16 1.7 35.1 73 -2.6 27.3
08:10 1023 30.21 852 25.16 1.8 35.2 73 -2.6 27.3
08:15 1023 30.21 852 25.16 2 35.5 69 -3.2 26.3
08:20 1023 30.21 852 25.16 2.4 36.2 67 -3.2 26.2
08:25 1023 30.21 852 25.16 2.4 36.4 65 -3.5 25.7
08:30 1023 30.21 852 25.16 2.7 36.9 62 -3.8 25.2
08:35 1023 30.21 852 25.16 2.7 36.8 64 -3.5 25.8
08:40 1023 30.21 852 25.16 2.7 36.9 62 -3.7 25.3
08:45 1023 30.21 852 25.16 2.7 36.9 59 -4.5 23.8
08:50 1023 30.21 852 25.16 2.7 36.9 61 -4 24.8
08:55 1023 30.21 852 25.16 3.1 37.5 59 -4.1 24.7
09:00 1023 30.21 852 25.16 3.2 37.7 54 -5.3 22.5
09:05 1023 30.21 852 25.16 3.3 38 54 -5 23
09:10 1023 30.21 852 25.16 4 39.3 53 -4.6 23.7
09:15 1023 30.21 852 25.16 4.6 40.3 52 -4.5 23.8
09:20 1023 30.21 852 25.16 4.8 40.6 51 -4.4 24
09:25 1023 30.21 852 25.16 4.8 40.6 51 -4.5 23.9
09:30 1023 30.21 852 25.16 4.8 40.6 50 -4.8 23.3
09:35 1023 30.21 852 25.16 4.7 40.5 51 -4.7 23.6
09:40 1023 30.21 852 25.16 4.8 40.6 51 -4.5 23.8
09:45 1023 30.21 852 25.16 5 41 51 -4.3 24.3
09:50 1023 30.21 852 25.16 4.7 40.5 50 -4.9 23.2
09:55 1023 30.21 852 25.16 5.1 41.1 49 -4.9 23.2
10:00 1023 30.21 852 25.16 4.8 40.6 49 -5.1 22.9
10:05 1023 30.21 852 25.16 4.5 40 53 -4.4 24.1
10:10 1023 30.21 852 25.16 4.9 40.8 49 -4.9 23.3
10:15 1023 30.21 852 25.16 4.4 39.9 51 -4.8 23.3
10:20 1023 30.21 852 25.16 3.7 38.6 54 -4.8 23.3
10:25 1023 30.21 852 25.16 3.9 39 52 -5.1 22.8
10:30 1023 30.21 852 25.16 3.8 38.8 55 -4.4 24.1
10:35 1023 30.21 852 25.16 4 39.1 54 -4.5 23.9
10:40 1023 30.21 852 25.16 4.3 39.8 52 -4.6 23.7
10:45 1023 30.21 852 25.16 4.9 40.7 52 -4.1 24.7
10:50 1023 30.21 852 25.16 4.5 40.1 55 -3.8 25.1
10:55 1023 30.21 852 25.16 5.2 41.3 51 -4.3 24.3
11:00 1023 30.21 852 25.16 5.8 42.5 46 -5 23
11:05 1023 30.21 852 25.16 5.3 41.5 48 -4.7 23.5
11:10 1023 30.21 852 25.16 5.6 42 48 -4.5 23.9
11:15 1023 30.21 852 25.16 5.2 41.3 51 -4.2 24.5
11:20 1023 30.21 852 25.16 4.9 40.9 51 -4.3 24.2
11:25 1023 30.21 852 25.16 5.6 42.1 47 -4.8 23.4
11:30 1023 30.21 852 25.16 5.8 42.5 47 -4.5 23.8
11:35 1023 30.21 852 25.16 5.8 42.5 48 -4.4 24.1
11:40 1023 30.21 852 25.16 5.1 41.1 50 -4.5 23.9
11:45 1023 30.21 852 25.16 4.8 40.7 51 -4.5 23.9
11:50 1023 30.21 852 25.16 4.7 40.5 52 -4.3 24.2
11:55 1023 30.21 852 25.16 4.6 40.3 54 -4 24.9
12:00 1023 30.21 852 25.16 4.4 40 53 -4.4 24.1
12:05 1023 30.21 852 25.16 4.6 40.2 52 -4.4 24
12:10 1023 30.21 852 25.16 4.3 39.8 53 -4.5 23.9
12:15 1023 30.21 852 25.16 4.3 39.7 55 -4 24.8
12:20 1023 30.21 852 25.16 4.6 40.2 54 -4 24.8
12:25 1023 30.21 852 25.16 4.6 40.2 53 -4.1 24.6
12:30 1023 30.21 852 25.16 4.4 39.9 54 -4.1 24.5
12:35 1023 30.21 852 25.16 4.4 40 54 -4.1 24.6
12:40 1023 30.21 852 25.16 4.3 39.8 55 -3.8 25.1
12:45 1023 30.21 852 25.16 4.3 39.8 52 -4.5 23.8
12:50 1023 30.21 852 25.16 4.4 40 53 -4.2 24.4
12:55 1023 30.21 852 25.16 4.4 39.8 53 -4.3 24.3
13:00 1023 30.21 852 25.16 4.4 39.8 53 -4.3 24.3
13:05 1023 30.21 852 25.16 4.3 39.7 54 -4.3 24.2
13:10 1023 30.21 852 25.16 4.3 39.8 53 -4.3 24.2
13:15 1023 30.21 852 25.16 4.3 39.7 55 -3.9 25
13:20 1023 30.21 852 25.16 4.5 40 54 -3.9 24.9
13:25 1023 30.21 852 25.16 4.3 39.8 54 -4.1 24.6
13:30 1023 30.21 852 25.16 4.4 40 55 -3.7 25.3
13:35 1023 30.21 852 25.16 4.6 40.4 55 -3.5 25.6
13:40 1023 30.21 852 25.16 4.8 40.7 54 -3.7 25.4
13:45 1023 30.21 852 25.16 5.2 41.3 53 -3.6 25.5
13:50 1023 30.21 852 25.16 5.1 41.1 53 -3.8 25.2
13:55 1023 30.21 852 25.16 4.8 40.7 53 -4 24.8
14:00 1023 30.21 852 25.16 5.4 41.7 47 -5 23
14:05 1023 30.21 852 25.16 5.8 42.4 50 -4 24.8
14:10 1023 30.21 852 25.16 5.6 42.2 51 -3.7 25.3
14:15 1023 30.21 852 25.16 5.9 42.6 48 -4.3 24.3
14:20 1023 30.21 852 25.16 5.6 42.1 52 -3.5 25.6
14:25 1023 30.21 852 25.16 5.7 42.3 50 -3.9 24.9
14:30 1023 30.21 852 25.16 6.2 43.2 49 -3.8 25.2
14:35 1023 30.21 852 25.16 6 42.8 49 -3.9 25
14:40 1023 30.21 852 25.16 5.7 42.2 50 -3.8 25.1
14:45 1023 30.21 852 25.16 5.7 42.2 50 -3.8 25.1
14:50 1023 30.21 852 25.16 6.1 42.9 50 -3.7 25.4
14:55 1023 30.21 852 25.16 6.1 42.9 51 -3.3 26.1
15:00 1023 30.21 852 25.16 6.2 43.1 49 -3.7 25.3
15:05 1023 30.21 852 25.16 6.3 43.4 50 -3.4 25.9
15:10 1023 30.21 852 25.16 6.1 42.9 50 -3.6 25.6
15:15 1023 30.21 852 25.16 6 42.8 50 -3.6 25.4
15:20 1023 30.21 852 25.16 6.2 43.1 49 -3.7 25.3
15:25 1023 30.21 852 25.16 6 42.9 51 -3.2 26.2
15:30 1023 30.21 852 25.16 6.1 43 51 -3.3 26.1
15:35 1023 30.21 852 25.16 6.2 43.2 50 -3.3 26
15:40 1023 30.21 852 25.16 6.1 43 51 -3.2 26.2
15:45 1023 30.21 852 25.16 6.1 42.9 51 -3.2 26.2
15:50 1023 30.21 852 25.16 5.8 42.5 50 -3.8 25.1
15:55 1023 30.21 852 25.16 6.1 43 51 -3.2 26.3
16:00 1023 30.21 852 25.16 5.8 42.4 53 -3 26.5
16:05 1023 30.21 852 25.16 5.7 42.3 52 -3.4 25.9
16:10 1023 30.21 852 25.16 5.8 42.4 52 -3.4 25.9
16:15 1023 30.21 852 25.16 5.6 42.1 53 -3.2 26.3
16:20 1023 30.21 852 25.16 5.7 42.3 52 -3.3 26
16:25 1023 30.21 852 25.16 5.6 42.1 53 -3.2 26.3
16:30 1023 30.21 852 25.16 5.8 42.4 53 -3 26.5
16:35 1023 30.21 852 25.16 5.8 42.5 53 -3 26.6
16:40 1023 30.21 852 25.16 5.6 42.2 55 -2.8 27
16:45 1023 30.21 852 25.16 5.6 42 55 -2.7 27.1
16:50 1023 30.21 852 25.16 5.6 42.1 54 -3 26.6
16:55 1023 30.21 852 25.16 5.5 41.9 54 -3 26.6
17:00 1023 30.21 853 25.19 5.2 41.4 60 -1.8 28.7
17:05 1023 30.21 853 25.19 4.6 40.4 63 -1.8 28.7
17:10 1023 30.21 853 25.19 3.8 38.9 68 -1.5 29.2
17:15 1024 30.24 853 25.19 3.5 38.2 71 -1.4 29.5
17:20 1024 30.24 853 25.19 3 37.4 75 -1 30.1
17:25 1024 30.24 853 25.19 2.5 36.6 78 -1 30.3
17:30 1024 30.24 853 25.19 2.1 35.9 80 -1 30.2
17:35 1024 30.24 853 25.19 2.1 35.7 79 -1.1 30
17:40 1024 30.24 853 25.19 2.1 35.8 77 -1.5 29.3
17:45 1024 30.24 853 25.19 2.3 36.2 74 -1.9 28.6
17:50 1024 30.24 853 25.19 2.6 36.6 75 -1.4 29.6
17:55 1024 30.24 853 25.19 2.7 36.9 79 -0.6 31
18:00 1024 30.24 853 25.19 2.4 36.3 84 -0 32
18:05 1024 30.24 853 25.19 2.2 35.9 85 -0 31.9
18:10 1024 30.24 853 25.19 2 35.5 86 -0.1 31.9
18:15 1024 30.24 853 25.19 1.9 35.5 86 -0.2 31.7
18:20 1024 30.24 853 25.19 2 35.5 85 -0.3 31.5
18:25 1024 30.24 853 25.19 2 35.6 84 -0.3 31.4
18:30 1024 30.24 853 25.19 2.1 35.8 83 -0.5 31
18:35 1024 30.24 853 25.19 2.2 35.9 82 -0.6 30.9
18:40 1024 30.24 853 25.19 2.3 36.1 82 -0.5 31.1
18:45 1024 30.24 853 25.19 2.4 36.3 80 -0.7 30.8
18:50 1024 30.24 853 25.19 2.5 36.5 79 -0.8 30.6
18:55 1024 30.24 853 25.19 2.5 36.5 79 -0.8 30.5
19:00 1024 30.24 853 25.19 2.5 36.5 75 -1.4 29.4
19:05 1024 30.24 853 25.19 2.6 36.6 75 -1.4 29.4
19:10 1024 30.24 854 25.22 2.6 36.6 75 -1.4 29.4
19:15 1024 30.24 854 25.22 2.6 36.7 74 -1.6 29
19:20 1024 30.24 854 25.22 2.6 36.7 73 -1.6 29.1
19:25 1024 30.24 854 25.22 2.7 36.9 73 -1.7 29
19:30 1025 30.27 854 25.22 2.7 36.8 74 -1.5 29.3
19:35 1025 30.27 854 25.22 2.6 36.7 74 -1.7 29
19:40 1025 30.27 854 25.22 2.6 36.6 72 -2 28.4
19:45 1025 30.27 854 25.22 2.6 36.7 71 -2.1 28.3
19:50 1025 30.27 854 25.22 2.6 36.7 72 -1.9 28.6
19:55 1025 30.27 854 25.22 2.5 36.6 73 -1.9 28.6
20:00 1025 30.27 854 25.22 2.5 36.5 74 -1.7 29
20:05 1025 30.27 854 25.22 2.5 36.4 73 -1.8 28.7
20:10 1025 30.27 854 25.22 2.5 36.5 71 -2.2 28
20:15 1025 30.27 854 25.22 2.5 36.6 71 -2.2 28.1
20:20 1025 30.27 854 25.22 2.6 36.7 70 -2.3 27.8
20:25 1025 30.27 854 25.22 2.7 36.8 69 -2.5 27.5
20:30 1025 30.27 854 25.22 2.8 37 68 -2.5 27.5
20:35 1025 30.27 855 25.25 2.7 36.8 82 -0.1 31.7
20:40 1025 30.27 855 25.25 2.2 36 84 -0.2 31.7
20:45 1026 30.3 855 25.25 2 35.7 86 -0.1 31.8
20:50 1026 30.3 855 25.25 1.9 35.4 86 -0.1 31.8
20:55 1026 30.3 855 25.25 1.9 35.4 87 -0 31.9
21:00 1026 30.3 855 25.25 1.9 35.4 87 -0 32
21:05 1026 30.3 855 25.25 1.9 35.5 87 -0 31.9
21:10 1026 30.3 855 25.25 1.9 35.4 87 -0 31.9
21:15 1026 30.3 855 25.25 1.8 35.2 87 -0.1 31.8
21:20 1026 30.3 855 25.25 1.7 35.1 84 -0.7 30.7
21:25 1026 30.3 855 25.25 1.8 35.2 84 -0.6 30.9
21:30 1026 30.3 855 25.25 2 35.5 84 -0.4 31.2
21:35 1026 30.3 855 25.25 2 35.6 84 -0.4 31.3
21:40 1026 30.3 855 25.25 2 35.6 83 -0.5 31.1
21:45 1026 30.3 855 25.25 1.8 35.2 83 -0.7 30.7
21:50 1026 30.3 855 25.25 1.5 34.7 85 -0.8 30.6
21:55 1026 30.3 855 25.25 1.5 34.7 86 -0.7 30.8
22:00 1026 30.3 855 25.25 1.5 34.7 86 -0.6 30.9
22:05 1026 30.3 855 25.25 1.3 34.3 87 -0.7 30.7
22:10 1026 30.3 855 25.25 1.2 34.2 86 -0.9 30.4
22:15 1026 30.3 855 25.25 1.3 34.3 86 -0.8 30.6
22:20 1026 30.3 855 25.25 1.2 34.2 87 -0.7 30.7
22:25 1026 30.3 855 25.25 1.2 34.1 88 -0.6 30.9
22:30 1026 30.3 855 25.25 1.2 34.2 86 -0.8 30.6
22:35 1026 30.3 855 25.25 1.2 34.1 87 -0.7 30.7
22:40 1026 30.3 855 25.25 0.9 33.6 88 -0.8 30.6
22:45 1026 30.3 855 25.25 0.8 33.5 88 -0.9 30.4
22:50 1026 30.3 855 25.25 0.8 33.4 88 -1 30.2
22:55 1026 30.3 855 25.25 0.7 33.2 88 -1.1 30
23:00 1026 30.3 855 25.25 0.7 33.2 87 -1.2 29.8
23:05 1026 30.3 855 25.25 0.6 33.2 87 -1.2 29.8
23:10 1026 30.3 855 25.25 0.6 33.2 88 -1.1 30
23:15 1026 30.3 855 25.25 0.7 33.2 88 -1.1 30.1
23:20 1026 30.3 856 25.28 0.7 33.3 88 -1.1 30
23:25 1026 30.3 856 25.28 0.7 33.3 88 -1.1 30.1
23:30 1026 30.3 856 25.28 0.7 33.2 89 -1 30.2
23:35 1026 30.3 856 25.28 0.4 32.8 90 -1 30.1
23:40 1027 30.33 856 25.28 0.3 32.5 91 -1 30.1
23:45 1027 30.33 856 25.28 0.3 32.5 91 -1 30.2
23:50 1026 30.3 856 25.28 0.3 32.5 90 -1.2 29.8
23:55 1027 30.33 856 25.28 0.4 32.7 86 -1.7 29
24:00 1027 30.33 856 25.28 0.5 33 86 -1.6 29.1